createdAt,value
2022-10-13T00:00:24.602Z,8.39
2022-10-13T00:01:24.665Z,8.38
2022-10-13T00:02:24.592Z,8.44
2022-10-13T00:03:24.607Z,8.39
2022-10-13T00:04:24.576Z,8.48
2022-10-13T00:05:24.555Z,8.59
2022-10-13T00:06:25.136Z,8.60
2022-10-13T00:07:24.553Z,8.60
2022-10-13T00:08:24.562Z,8.70
2022-10-13T00:09:24.533Z,8.75
2022-10-13T00:10:24.518Z,8.81
2022-10-13T00:11:24.512Z,8.88
2022-10-13T00:12:24.502Z,8.90
2022-10-13T00:13:24.517Z,8.90
2022-10-13T00:14:24.500Z,8.84
2022-10-13T00:15:24.479Z,8.90
2022-10-13T00:16:24.467Z,8.84
2022-10-13T00:17:24.462Z,8.90
2022-10-13T00:18:24.486Z,8.91
2022-10-13T00:19:24.443Z,8.93
2022-10-13T00:20:24.432Z,9.03
2022-10-13T00:21:24.441Z,8.96
2022-10-13T00:22:24.416Z,8.98
2022-10-13T00:23:24.451Z,9.11
2022-10-13T00:24:24.400Z,9.05
2022-10-13T00:25:24.391Z,9.16
2022-10-13T00:26:24.382Z,9.21
2022-10-13T00:27:24.373Z,9.14
2022-10-13T00:28:24.403Z,9.19
2022-10-13T00:29:24.435Z,9.19
2022-10-13T00:30:24.809Z,9.22
2022-10-13T00:31:24.593Z,9.18
2022-10-13T00:32:24.350Z,9.15
2022-10-13T00:33:24.330Z,9.18
2022-10-13T00:34:24.347Z,9.26
2022-10-13T00:35:24.313Z,9.19
2022-10-13T00:36:24.306Z,9.26
2022-10-13T00:37:24.293Z,9.25
2022-10-13T00:38:24.324Z,9.37
2022-10-13T00:39:24.283Z,9.25
2022-10-13T00:40:24.258Z,9.26
2022-10-13T00:41:25.263Z,9.34
2022-10-13T00:42:24.256Z,9.36
2022-10-13T00:43:24.272Z,9.34
2022-10-13T00:44:24.248Z,9.43
2022-10-13T00:45:24.226Z,9.37
2022-10-13T00:46:24.219Z,9.33
2022-10-13T00:47:24.221Z,9.34
2022-10-13T00:48:25.230Z,9.39
2022-10-13T00:49:24.192Z,9.42
2022-10-13T00:50:24.325Z,9.33
2022-10-13T00:51:24.174Z,9.32
2022-10-13T00:52:24.215Z,9.28
2022-10-13T00:53:24.207Z,9.34
2022-10-13T00:54:24.330Z,9.34
2022-10-13T00:55:24.188Z,9.32
2022-10-13T00:56:24.635Z,9.32
2022-10-13T00:57:24.125Z,9.24
2022-10-13T00:58:24.155Z,9.25
2022-10-13T00:59:24.108Z,9.22
2022-10-13T01:00:24.106Z,9.15
2022-10-13T01:01:24.278Z,9.14
2022-10-13T01:02:24.088Z,9.33
2022-10-13T01:03:24.104Z,9.19
2022-10-13T01:04:24.067Z,9.14
2022-10-13T01:05:24.056Z,9.18
2022-10-13T01:06:24.109Z,9.18
2022-10-13T01:07:24.043Z,9.11
2022-10-13T01:08:24.060Z,9.14
2022-10-13T01:09:24.373Z,9.16
2022-10-13T01:10:24.019Z,9.18
2022-10-13T01:11:24.359Z,9.22
2022-10-13T01:12:24.373Z,9.15
2022-10-13T01:13:24.029Z,9.25
2022-10-13T01:14:23.983Z,9.28
2022-10-13T01:15:24.057Z,9.28
2022-10-13T01:16:23.967Z,9.34
2022-10-13T01:17:23.967Z,9.37
2022-10-13T01:18:23.979Z,9.29
2022-10-13T01:19:23.944Z,9.25
2022-10-13T01:20:23.930Z,9.28
2022-10-13T01:21:23.922Z,9.37
2022-10-13T01:22:23.919Z,9.34
2022-10-13T01:23:23.969Z,9.25
2022-10-13T01:24:23.905Z,9.34
2022-10-13T01:25:23.886Z,9.36
2022-10-13T01:26:24.043Z,9.33
2022-10-13T01:27:23.873Z,9.28
2022-10-13T01:28:23.926Z,9.32
2022-10-13T01:29:23.860Z,9.32
2022-10-13T01:30:23.855Z,9.28
2022-10-13T01:31:23.844Z,9.29
2022-10-13T01:32:23.833Z,9.32
2022-10-13T01:33:23.819Z,9.39
2022-10-13T01:34:23.849Z,9.33
2022-10-13T01:35:23.893Z,9.24
2022-10-13T01:36:23.806Z,9.39
2022-10-13T01:37:23.792Z,9.43
2022-10-13T01:38:23.776Z,9.42
2022-10-13T01:39:23.800Z,9.39
2022-10-13T01:40:23.765Z,9.39
2022-10-13T01:41:23.762Z,9.37
2022-10-13T01:42:23.744Z,9.37
2022-10-13T01:43:23.739Z,9.29
2022-10-13T01:44:23.754Z,9.29
2022-10-13T01:45:23.778Z,9.32
2022-10-13T01:46:24.763Z,9.39
2022-10-13T01:47:23.703Z,9.37
2022-10-13T01:48:23.699Z,9.37
2022-10-13T01:49:23.722Z,9.32
2022-10-13T01:50:23.688Z,9.42
2022-10-13T01:51:23.745Z,9.39
2022-10-13T01:52:23.664Z,9.43
2022-10-13T01:53:23.657Z,9.32
2022-10-13T01:54:23.835Z,9.36
2022-10-13T01:55:23.634Z,9.28
2022-10-13T01:56:23.632Z,9.22
2022-10-13T01:57:23.618Z,9.29
2022-10-13T01:58:24.613Z,9.32
2022-10-13T01:59:23.639Z,9.25
2022-10-13T02:00:23.618Z,9.26
2022-10-13T02:01:23.842Z,9.34
2022-10-13T02:02:23.729Z,9.25
2022-10-13T02:03:23.585Z,9.28
2022-10-13T02:04:23.592Z,9.29
2022-10-13T02:05:23.561Z,9.22
2022-10-13T02:06:23.548Z,9.22
2022-10-13T02:07:23.548Z,9.25
2022-10-13T02:08:24.531Z,9.25
2022-10-13T02:09:23.552Z,9.28
2022-10-13T02:10:23.568Z,9.18
2022-10-13T02:11:23.660Z,9.19
2022-10-13T02:12:23.500Z,9.11
2022-10-13T02:13:23.489Z,9.14
2022-10-13T02:14:23.511Z,9.18
2022-10-13T02:15:23.468Z,9.11
2022-10-13T02:16:23.461Z,9.14
2022-10-13T02:17:23.452Z,9.18
2022-10-13T02:18:23.445Z,9.11
2022-10-13T02:19:23.481Z,9.19
2022-10-13T02:20:23.422Z,9.16
2022-10-13T02:21:23.419Z,9.11
2022-10-13T02:22:23.411Z,9.16
2022-10-13T02:23:23.419Z,9.14
2022-10-13T02:24:23.441Z,9.18
2022-10-13T02:25:23.388Z,9.15
2022-10-13T02:26:23.411Z,9.15
2022-10-13T02:27:23.370Z,9.18
2022-10-13T02:28:23.409Z,9.16
2022-10-13T02:29:23.338Z,9.06
2022-10-13T02:30:23.361Z,9.02
2022-10-13T02:31:23.621Z,8.99
2022-10-13T02:32:23.323Z,8.93
2022-10-13T02:33:23.318Z,8.91
2022-10-13T02:34:23.347Z,8.90
2022-10-13T02:35:23.298Z,8.82
2022-10-13T02:36:23.380Z,8.84
2022-10-13T02:37:23.279Z,8.80
2022-10-13T02:38:23.267Z,8.91
2022-10-13T02:39:23.277Z,8.77
2022-10-13T02:40:23.303Z,8.81
2022-10-13T02:41:23.246Z,8.84
2022-10-13T02:42:23.576Z,8.87
2022-10-13T02:43:23.226Z,8.80
2022-10-13T02:44:23.266Z,8.85
2022-10-13T02:45:23.218Z,8.82
2022-10-13T02:46:23.204Z,8.81
2022-10-13T02:47:23.198Z,8.82
2022-10-13T02:48:23.183Z,8.85
2022-10-13T02:49:24.360Z,8.85
2022-10-13T02:50:23.206Z,8.90
2022-10-13T02:51:23.183Z,8.91
2022-10-13T02:52:23.218Z,8.95
2022-10-13T02:53:23.162Z,8.90
2022-10-13T02:54:23.168Z,8.85
2022-10-13T02:55:23.251Z,8.95
2022-10-13T02:56:23.131Z,8.95
2022-10-13T02:57:23.117Z,9.06
2022-10-13T02:58:23.112Z,9.00
2022-10-13T02:59:23.156Z,8.96
2022-10-13T03:00:23.098Z,9.02
2022-10-13T03:01:23.083Z,8.96
2022-10-13T03:02:23.487Z,9.03
2022-10-13T03:03:23.070Z,9.05
2022-10-13T03:04:23.095Z,9.11
2022-10-13T03:05:23.087Z,9.10
2022-10-13T03:06:23.044Z,9.14
2022-10-13T03:07:23.028Z,9.08
2022-10-13T03:08:23.029Z,8.95
2022-10-13T03:09:23.048Z,8.98
2022-10-13T03:10:23.010Z,8.93
2022-10-13T03:11:23.004Z,8.90
2022-10-13T03:12:23.199Z,8.84
2022-10-13T03:13:22.990Z,8.99
2022-10-13T03:14:23.007Z,8.98
2022-10-13T03:15:22.973Z,8.93
2022-10-13T03:16:22.963Z,8.99
2022-10-13T03:17:22.947Z,9.10
2022-10-13T03:18:22.943Z,8.98
2022-10-13T03:19:22.972Z,9.03
2022-10-13T03:20:22.932Z,8.95
2022-10-13T03:21:22.920Z,8.96
2022-10-13T03:22:23.320Z,8.98
2022-10-13T03:23:22.917Z,8.98
2022-10-13T03:24:22.928Z,9.00
2022-10-13T03:25:22.888Z,8.98
2022-10-13T03:26:22.878Z,8.99
2022-10-13T03:27:22.976Z,8.91
2022-10-13T03:28:22.910Z,9.08
2022-10-13T03:29:22.889Z,8.98
2022-10-13T03:30:22.915Z,9.14
2022-10-13T03:31:22.842Z,9.06
2022-10-13T03:32:23.149Z,9.14
2022-10-13T03:33:22.815Z,8.98
2022-10-13T03:34:22.811Z,9.14
2022-10-13T03:35:22.830Z,9.06
2022-10-13T03:36:22.794Z,9.03
2022-10-13T03:37:22.920Z,9.21
2022-10-13T03:38:22.783Z,9.15
2022-10-13T03:39:22.772Z,9.14
2022-10-13T03:40:22.791Z,9.18
2022-10-13T03:41:22.756Z,9.11
2022-10-13T03:42:22.903Z,9.15
2022-10-13T03:43:22.751Z,9.16
2022-10-13T03:44:22.727Z,9.28
2022-10-13T03:45:22.744Z,9.18
2022-10-13T03:46:22.698Z,9.19
2022-10-13T03:47:23.697Z,9.22
2022-10-13T03:48:22.692Z,9.21
2022-10-13T03:49:22.697Z,9.18
2022-10-13T03:50:22.707Z,9.19
2022-10-13T03:51:22.658Z,9.11
2022-10-13T03:52:22.848Z,9.24
2022-10-13T03:53:22.660Z,9.25
2022-10-13T03:54:22.640Z,9.33
2022-10-13T03:55:22.666Z,9.26
2022-10-13T03:56:22.743Z,9.33
2022-10-13T03:57:22.624Z,9.26
2022-10-13T03:58:22.607Z,9.24
2022-10-13T03:59:22.755Z,9.26
2022-10-13T04:00:22.698Z,9.18
2022-10-13T04:01:22.630Z,9.18
2022-10-13T04:02:22.678Z,9.15
2022-10-13T04:03:22.562Z,9.22
2022-10-13T04:04:22.554Z,9.19
2022-10-13T04:05:22.573Z,9.21
2022-10-13T04:06:22.542Z,9.15
2022-10-13T04:07:22.541Z,9.11
2022-10-13T04:08:22.524Z,9.15
2022-10-13T04:09:22.520Z,9.16
2022-10-13T04:10:22.541Z,9.19
2022-10-13T04:11:22.499Z,9.11
2022-10-13T04:12:22.829Z,9.16
2022-10-13T04:13:22.482Z,9.28
2022-10-13T04:14:22.472Z,9.26
2022-10-13T04:15:22.490Z,9.26
2022-10-13T04:16:22.460Z,9.26
2022-10-13T04:17:22.450Z,9.22
2022-10-13T04:18:22.437Z,9.32
2022-10-13T04:19:22.442Z,9.24
2022-10-13T04:20:22.453Z,9.33
2022-10-13T04:21:22.416Z,9.22
2022-10-13T04:22:22.791Z,9.25
2022-10-13T04:23:22.395Z,9.24
2022-10-13T04:24:22.389Z,9.11
2022-10-13T04:25:22.405Z,9.25
2022-10-13T04:26:22.375Z,9.32
2022-10-13T04:27:22.360Z,9.32
2022-10-13T04:28:22.390Z,9.33
2022-10-13T04:29:22.347Z,9.22
2022-10-13T04:30:22.368Z,9.25
2022-10-13T04:31:22.335Z,9.25
2022-10-13T04:32:22.517Z,9.16
2022-10-13T04:33:22.321Z,9.16
2022-10-13T04:34:22.357Z,9.26
2022-10-13T04:35:22.327Z,9.25
2022-10-13T04:36:22.301Z,9.14
2022-10-13T04:37:22.339Z,9.21
2022-10-13T04:38:22.274Z,9.19
2022-10-13T04:39:22.267Z,9.25
2022-10-13T04:40:22.286Z,9.34
2022-10-13T04:41:22.434Z,9.24
2022-10-13T04:42:22.726Z,9.21
2022-10-13T04:43:22.231Z,9.15
2022-10-13T04:44:22.220Z,9.18
2022-10-13T04:45:22.240Z,9.10
2022-10-13T04:46:22.207Z,9.10
2022-10-13T04:47:22.190Z,9.16
2022-10-13T04:48:22.179Z,9.24
2022-10-13T04:49:22.276Z,9.16
2022-10-13T04:50:22.199Z,9.21
2022-10-13T04:51:22.167Z,9.21
2022-10-13T04:52:22.483Z,9.22
2022-10-13T04:53:22.149Z,9.11
2022-10-13T04:54:22.147Z,9.24
2022-10-13T04:55:22.158Z,9.08
2022-10-13T04:56:22.119Z,9.00
2022-10-13T04:57:22.117Z,9.06
2022-10-13T04:58:22.108Z,9.02
2022-10-13T04:59:22.097Z,9.00
2022-10-13T05:00:22.236Z,9.08
2022-10-13T05:01:22.583Z,9.10
2022-10-13T05:02:23.081Z,9.11
2022-10-13T05:03:22.066Z,9.03
2022-10-13T05:04:22.066Z,9.08
2022-10-13T05:05:22.076Z,9.02
2022-10-13T05:06:22.039Z,9.10
2022-10-13T05:07:22.035Z,9.00
2022-10-13T05:08:22.046Z,9.06
2022-10-13T05:09:22.047Z,9.06
2022-10-13T05:10:22.034Z,9.16
2022-10-13T05:11:22.006Z,9.11
2022-10-13T05:12:22.245Z,9.15
2022-10-13T05:13:21.981Z,9.14
2022-10-13T05:14:21.966Z,9.21
2022-10-13T05:15:22.010Z,9.19
2022-10-13T05:16:22.021Z,9.21
2022-10-13T05:17:21.959Z,9.15
2022-10-13T05:18:21.941Z,9.15
2022-10-13T05:19:21.926Z,9.11
2022-10-13T05:20:22.957Z,9.11
2022-10-13T05:21:21.917Z,9.19
2022-10-13T05:22:22.210Z,9.18
2022-10-13T05:23:21.899Z,9.16
2022-10-13T05:24:21.891Z,9.16
2022-10-13T05:25:21.918Z,9.10
2022-10-13T05:26:21.879Z,9.19
2022-10-13T05:27:21.863Z,9.11
2022-10-13T05:28:21.919Z,9.19
2022-10-13T05:29:21.849Z,9.18
2022-10-13T05:30:21.874Z,9.18
2022-10-13T05:31:21.828Z,9.16
2022-10-13T05:32:22.213Z,9.05
2022-10-13T05:33:21.820Z,9.10
2022-10-13T05:34:21.803Z,9.19
2022-10-13T05:35:21.797Z,9.15
2022-10-13T05:36:21.819Z,9.16
2022-10-13T05:37:21.782Z,9.18
2022-10-13T05:38:25.932Z,9.14
2022-10-13T05:39:22.765Z,9.28
2022-10-13T05:40:21.746Z,9.24
2022-10-13T05:41:22.785Z,9.26
2022-10-13T05:42:22.131Z,9.26
2022-10-13T05:43:21.734Z,9.36
2022-10-13T05:44:21.736Z,9.29
2022-10-13T05:45:21.747Z,9.28
2022-10-13T05:46:21.741Z,9.37
2022-10-13T05:47:21.697Z,9.26
2022-10-13T05:48:21.697Z,9.34
2022-10-13T05:49:21.683Z,9.25
2022-10-13T05:50:21.676Z,9.34
2022-10-13T05:51:21.712Z,9.36
2022-10-13T05:52:22.073Z,9.42
2022-10-13T05:53:21.690Z,9.36
2022-10-13T05:54:21.650Z,9.47
2022-10-13T05:55:21.643Z,9.29
2022-10-13T05:56:21.672Z,9.42
2022-10-13T05:57:21.620Z,9.44
2022-10-13T05:58:21.615Z,9.40
2022-10-13T05:59:26.772Z,9.52
2022-10-13T06:00:23.594Z,9.46
2022-10-13T06:01:21.614Z,9.55
2022-10-13T06:02:22.007Z,9.61
2022-10-13T06:03:21.567Z,9.59
2022-10-13T06:04:21.563Z,9.46
2022-10-13T06:05:21.552Z,9.47
2022-10-13T06:06:21.572Z,9.55
2022-10-13T06:07:21.545Z,9.58
2022-10-13T06:08:21.535Z,9.61
2022-10-13T06:09:21.520Z,9.62
2022-10-13T06:10:21.522Z,9.62
2022-10-13T06:11:21.528Z,9.67
2022-10-13T06:12:21.810Z,9.70
2022-10-13T06:13:21.501Z,9.69
2022-10-13T06:14:21.478Z,9.69
2022-10-13T06:15:25.696Z,9.79
2022-10-13T06:16:23.485Z,9.77
2022-10-13T06:17:21.452Z,9.76
2022-10-13T06:18:21.451Z,9.73
2022-10-13T06:19:21.443Z,9.85
2022-10-13T06:20:21.434Z,9.79
2022-10-13T06:21:21.452Z,9.73
2022-10-13T06:22:21.906Z,9.85
2022-10-13T06:23:21.409Z,9.77
2022-10-13T06:24:21.396Z,9.76
2022-10-13T06:25:21.384Z,9.80
2022-10-13T06:26:21.505Z,9.85
2022-10-13T06:27:21.373Z,9.86
2022-10-13T06:28:21.409Z,9.82
2022-10-13T06:29:21.353Z,9.83
2022-10-13T06:30:21.357Z,9.75
2022-10-13T06:31:21.361Z,9.93
2022-10-13T06:32:21.726Z,9.90
2022-10-13T06:33:21.321Z,9.91
2022-10-13T06:34:21.313Z,9.93
2022-10-13T06:35:21.304Z,9.97
2022-10-13T06:36:21.329Z,10.01
2022-10-13T06:37:26.958Z,10.00
2022-10-13T06:38:23.277Z,9.94
2022-10-13T06:39:21.279Z,9.91
2022-10-13T06:40:21.255Z,9.88
2022-10-13T06:41:21.348Z,9.90
2022-10-13T06:42:21.575Z,9.94
2022-10-13T06:43:21.246Z,9.86
2022-10-13T06:44:21.232Z,9.93
2022-10-13T06:45:21.221Z,9.93
2022-10-13T06:46:21.256Z,10.04
2022-10-13T06:47:21.214Z,10.06
2022-10-13T06:48:21.201Z,10.12
2022-10-13T06:49:21.199Z,10.08
2022-10-13T06:50:21.180Z,10.13
2022-10-13T06:51:21.169Z,10.06
2022-10-13T06:52:21.566Z,10.10
2022-10-13T06:53:21.155Z,10.09
2022-10-13T06:54:21.147Z,10.01
2022-10-13T06:55:21.142Z,10.18
2022-10-13T06:56:21.178Z,10.10
2022-10-13T06:57:21.153Z,10.23
2022-10-13T06:58:21.135Z,10.23
2022-10-13T06:59:21.126Z,10.20
2022-10-13T07:00:21.152Z,10.19
2022-10-13T07:01:21.089Z,10.28
2022-10-13T07:02:21.450Z,10.27
2022-10-13T07:03:21.079Z,10.30
2022-10-13T07:04:21.153Z,10.43
2022-10-13T07:05:21.064Z,10.41
2022-10-13T07:06:21.032Z,10.34
2022-10-13T07:07:22.067Z,10.30
2022-10-13T07:08:21.043Z,10.34
2022-10-13T07:09:21.015Z,10.33
2022-10-13T07:10:21.008Z,10.48
2022-10-13T07:11:20.996Z,10.41
2022-10-13T07:12:21.352Z,10.48
2022-10-13T07:14:20.967Z,10.56
2022-10-13T07:15:20.960Z,10.53
2022-10-13T07:16:20.953Z,10.54
2022-10-13T07:17:21.193Z,10.67
2022-10-13T07:18:20.938Z,10.65
2022-10-13T07:19:20.937Z,10.67
2022-10-13T07:20:20.926Z,10.74
2022-10-13T07:21:20.919Z,10.74
2022-10-13T07:22:20.933Z,10.67
2022-10-13T07:23:20.904Z,10.72
2022-10-13T07:24:20.902Z,10.79
2022-10-13T07:25:20.900Z,10.79
2022-10-13T07:26:20.874Z,10.86
2022-10-13T07:27:21.107Z,10.95
2022-10-13T07:28:20.869Z,10.89
2022-10-13T07:29:20.858Z,10.92
2022-10-13T07:30:20.870Z,10.92
2022-10-13T07:31:20.831Z,10.97
2022-10-13T07:32:20.844Z,10.97
2022-10-13T07:33:20.821Z,11.03
2022-10-13T07:34:20.805Z,11.10
2022-10-13T07:35:20.793Z,11.04
2022-10-13T07:36:20.794Z,11.12
2022-10-13T07:37:21.130Z,11.08
2022-10-13T07:38:20.765Z,11.17
2022-10-13T07:39:21.756Z,11.04
2022-10-13T07:40:20.806Z,11.12
2022-10-13T07:41:20.744Z,11.25
2022-10-13T07:42:20.771Z,11.29
2022-10-13T07:43:20.740Z,11.30
2022-10-13T07:44:20.733Z,11.33
2022-10-13T07:45:20.713Z,11.37
2022-10-13T07:46:20.760Z,11.38
2022-10-13T07:47:21.085Z,11.29
2022-10-13T07:49:20.675Z,11.43
2022-10-13T07:50:20.745Z,11.43
2022-10-13T07:51:20.665Z,11.47
2022-10-13T07:52:21.014Z,11.51
2022-10-13T07:53:20.643Z,11.56
2022-10-13T07:54:23.801Z,11.61
2022-10-13T07:55:22.628Z,11.63
2022-10-13T07:56:20.621Z,11.77
2022-10-13T07:57:20.643Z,11.68
2022-10-13T07:58:20.640Z,11.79
2022-10-13T07:59:20.631Z,11.76
2022-10-13T08:00:20.608Z,11.68
2022-10-13T08:01:20.613Z,11.63
2022-10-13T08:02:21.071Z,11.79
2022-10-13T08:03:20.567Z,11.66
2022-10-13T08:04:20.558Z,11.76
2022-10-13T08:05:20.550Z,11.76
2022-10-13T08:06:20.545Z,11.91
2022-10-13T08:07:21.023Z,12.00
2022-10-13T08:08:20.538Z,12.09
2022-10-13T08:09:20.520Z,12.10
2022-10-13T08:10:20.530Z,12.14
2022-10-13T08:11:20.508Z,12.10
2022-10-13T08:12:20.889Z,12.00
2022-10-13T08:13:20.487Z,12.07
2022-10-13T08:14:20.485Z,12.07
2022-10-13T08:15:20.466Z,12.14
2022-10-13T08:16:20.455Z,12.18
2022-10-13T08:17:20.770Z,12.27
2022-10-13T08:18:20.448Z,12.32
2022-10-13T08:19:20.443Z,12.35
2022-10-13T08:20:20.424Z,12.25
2022-10-13T08:22:27.278Z,12.39
2022-10-13T08:23:21.411Z,12.38
2022-10-13T08:24:20.396Z,12.39
2022-10-13T08:25:20.387Z,12.57
2022-10-13T08:26:20.383Z,12.51
2022-10-13T08:27:20.769Z,12.53
2022-10-13T08:28:20.408Z,12.51
2022-10-13T08:29:23.000Z,12.39
2022-10-13T08:30:21.553Z,12.35
2022-10-13T08:31:20.489Z,12.35
2022-10-13T08:32:20.701Z,12.22
2022-10-13T08:33:20.320Z,12.18
2022-10-13T08:34:20.307Z,12.32
2022-10-13T08:35:20.296Z,12.25
2022-10-13T08:36:20.293Z,12.22
2022-10-13T08:37:20.308Z,12.36
2022-10-13T08:38:20.277Z,12.36
2022-10-13T08:39:20.264Z,12.38
2022-10-13T08:40:20.263Z,12.55
2022-10-13T08:41:21.252Z,12.39
2022-10-13T08:42:20.612Z,12.39
2022-10-13T08:43:20.239Z,12.45
2022-10-13T08:45:40.332Z,12.69
2022-10-13T08:46:22.230Z,12.58
2022-10-13T08:47:20.235Z,12.57
2022-10-13T08:48:20.191Z,12.57
2022-10-13T08:49:20.185Z,12.54
2022-10-13T08:50:20.167Z,12.64
2022-10-13T08:51:20.173Z,12.75
2022-10-13T08:52:20.532Z,12.73
2022-10-13T08:53:20.151Z,12.72
2022-10-13T08:54:20.143Z,12.82
2022-10-13T08:55:20.137Z,12.82
2022-10-13T08:56:20.122Z,12.91
2022-10-13T08:57:20.324Z,12.93
2022-10-13T08:58:20.107Z,12.91
2022-10-13T08:59:20.104Z,13.09
2022-10-13T09:00:20.093Z,13.09
2022-10-13T09:01:20.135Z,13.05
2022-10-13T09:02:20.100Z,13.19
2022-10-13T09:03:20.062Z,13.06
2022-10-13T09:04:20.052Z,13.08
2022-10-13T09:05:20.055Z,13.22
2022-10-13T09:06:20.048Z,13.29
2022-10-13T09:07:20.300Z,13.29
2022-10-13T09:08:20.053Z,13.16
2022-10-13T09:09:20.013Z,13.18
2022-10-13T09:10:20.032Z,13.26
2022-10-13T09:11:19.999Z,13.37
2022-10-13T09:12:20.154Z,13.41
2022-10-13T09:13:20.015Z,13.52
2022-10-13T09:14:19.973Z,13.67
2022-10-13T09:15:19.964Z,13.68
2022-10-13T09:16:19.952Z,13.60
2022-10-13T09:17:20.010Z,13.70
2022-10-13T09:18:19.972Z,13.75
2022-10-13T09:19:19.961Z,13.70
2022-10-13T09:20:19.921Z,13.75
2022-10-13T09:21:19.922Z,13.92
2022-10-13T09:22:20.182Z,13.95
2022-10-13T09:23:19.931Z,14.11
2022-10-13T09:24:19.885Z,14.23
2022-10-13T09:25:19.886Z,14.26
2022-10-13T09:26:19.878Z,14.70
2022-10-13T09:27:19.865Z,15.12
2022-10-13T09:28:19.919Z,15.80
2022-10-13T09:29:19.846Z,16.65
2022-10-13T09:30:19.848Z,16.79
2022-10-13T09:31:19.829Z,16.65
2022-10-13T09:32:20.125Z,16.43
2022-10-13T09:33:19.859Z,15.97
2022-10-13T09:34:19.805Z,15.87
2022-10-13T09:35:19.814Z,15.54
2022-10-13T09:36:19.789Z,15.19
2022-10-13T09:37:19.782Z,15.17
2022-10-13T09:38:19.815Z,14.97
2022-10-13T09:39:19.752Z,14.62
2022-10-13T09:40:20.758Z,14.65
2022-10-13T09:41:19.779Z,14.58
2022-10-13T09:42:20.026Z,14.59
2022-10-13T09:43:19.759Z,14.53
2022-10-13T09:44:22.080Z,14.33
2022-10-13T09:45:19.715Z,14.23
2022-10-13T09:46:19.716Z,14.19
2022-10-13T09:47:19.700Z,14.13
2022-10-13T09:48:19.721Z,14.14
2022-10-13T09:49:19.695Z,14.22
2022-10-13T09:50:19.829Z,14.29
2022-10-13T09:51:19.678Z,14.41
2022-10-13T09:52:19.879Z,14.44
2022-10-13T09:53:19.687Z,14.47
2022-10-13T09:54:19.653Z,14.63
2022-10-13T09:55:19.650Z,14.88
2022-10-13T09:56:19.634Z,15.00
2022-10-13T09:57:19.650Z,15.51
2022-10-13T09:58:19.655Z,15.95
2022-10-13T09:59:19.605Z,16.10
2022-10-13T10:00:19.592Z,16.35
2022-10-13T10:01:19.601Z,16.38
2022-10-13T10:02:21.352Z,16.21
2022-10-13T10:03:19.597Z,16.09
2022-10-13T10:04:19.577Z,15.75
2022-10-13T10:05:19.557Z,15.44
2022-10-13T10:06:20.766Z,15.30
2022-10-13T10:07:19.755Z,15.11
2022-10-13T10:08:22.630Z,15.09
2022-10-13T10:09:20.555Z,15.09
2022-10-13T10:10:19.518Z,15.09
2022-10-13T10:11:19.512Z,15.07
2022-10-13T10:12:21.877Z,15.06
2022-10-13T10:13:19.485Z,15.15
2022-10-13T10:14:19.522Z,15.19
2022-10-13T10:15:19.474Z,15.30
2022-10-13T10:16:19.660Z,15.19
2022-10-13T10:17:19.663Z,15.12
2022-10-13T10:18:19.471Z,15.06
2022-10-13T10:19:19.430Z,15.07
2022-10-13T10:20:19.430Z,15.27
2022-10-13T10:21:19.421Z,15.39
2022-10-13T10:22:19.431Z,15.40
2022-10-13T10:23:19.422Z,15.44
2022-10-13T10:24:19.393Z,15.22
2022-10-13T10:25:19.389Z,15.19
2022-10-13T10:26:23.141Z,15.09
2022-10-13T10:28:20.466Z,14.93
2022-10-13T10:29:19.351Z,14.96
2022-10-13T10:30:19.340Z,15.03
2022-10-13T10:31:19.333Z,15.15
2022-10-13T10:32:19.652Z,15.22
2022-10-13T10:33:19.349Z,15.14
2022-10-13T10:34:19.310Z,15.25
2022-10-13T10:35:19.304Z,15.25
2022-10-13T10:36:19.297Z,15.35
2022-10-13T10:37:22.797Z,15.27
2022-10-13T10:38:20.310Z,15.35
2022-10-13T10:39:19.261Z,15.55
2022-10-13T10:40:19.258Z,15.48
2022-10-13T10:41:19.276Z,15.48
2022-10-13T10:42:19.518Z,15.52
2022-10-13T10:43:19.279Z,15.73
2022-10-13T10:44:19.222Z,15.82
2022-10-13T10:45:19.223Z,15.73
2022-10-13T10:46:19.209Z,15.91
2022-10-13T10:47:22.521Z,15.94
2022-10-13T10:48:19.191Z,16.00
2022-10-13T10:49:19.204Z,15.95
2022-10-13T10:50:19.168Z,15.70
2022-10-13T10:51:19.172Z,15.82
2022-10-13T10:52:19.144Z,15.91
2022-10-13T10:53:19.153Z,15.76
2022-10-13T10:54:19.211Z,15.82
2022-10-13T10:55:19.126Z,15.72
2022-10-13T10:56:19.117Z,15.83
2022-10-13T10:57:19.311Z,15.85
2022-10-13T10:58:19.132Z,15.83
2022-10-13T10:59:19.093Z,16.02
2022-10-13T11:00:19.122Z,16.08
2022-10-13T11:01:19.103Z,16.25
2022-10-13T11:02:19.365Z,16.32
2022-10-13T11:03:19.105Z,16.35
2022-10-13T11:04:19.047Z,16.26
2022-10-13T11:05:19.043Z,16.00
2022-10-13T11:06:19.039Z,16.01
2022-10-13T11:07:19.038Z,15.90
2022-10-13T11:08:19.081Z,15.79
2022-10-13T11:09:19.007Z,15.85
2022-10-13T11:10:18.996Z,15.75
2022-10-13T11:11:23.354Z,15.68
2022-10-13T11:12:20.434Z,15.64
2022-10-13T11:13:19.057Z,15.62
2022-10-13T11:14:18.966Z,15.62
2022-10-13T11:15:18.955Z,15.65
2022-10-13T11:16:18.946Z,15.62
2022-10-13T11:17:18.936Z,15.68
2022-10-13T11:18:21.942Z,15.72
2022-10-13T11:19:19.920Z,15.68
2022-10-13T11:20:18.905Z,15.62
2022-10-13T11:21:18.899Z,15.60
2022-10-13T11:22:19.245Z,15.51
2022-10-13T11:23:18.930Z,15.46
2022-10-13T11:24:18.889Z,15.44
2022-10-13T11:25:18.868Z,15.40
2022-10-13T11:26:18.857Z,15.39
2022-10-13T11:27:19.854Z,15.37
2022-10-13T11:28:18.925Z,15.54
2022-10-13T11:29:18.832Z,15.46
2022-10-13T11:30:18.884Z,15.60
2022-10-13T11:31:18.826Z,15.69
2022-10-13T11:32:19.185Z,15.73
2022-10-13T11:33:18.834Z,15.83
2022-10-13T11:34:18.799Z,15.91
2022-10-13T11:35:18.783Z,15.72
2022-10-13T11:36:18.779Z,15.79
2022-10-13T11:37:18.770Z,15.90
2022-10-13T11:38:18.979Z,15.85
2022-10-13T11:39:18.805Z,15.87
2022-10-13T11:40:18.744Z,15.75
2022-10-13T11:41:18.746Z,15.68
2022-10-13T11:42:19.105Z,15.76
2022-10-13T11:43:18.768Z,15.82
2022-10-13T11:44:18.750Z,15.77
2022-10-13T11:45:18.702Z,15.76
2022-10-13T11:46:18.700Z,15.69
2022-10-13T11:47:18.890Z,15.57
2022-10-13T11:48:18.707Z,15.64
2022-10-13T11:49:18.673Z,15.79
2022-10-13T11:50:18.663Z,15.82
2022-10-13T11:51:18.647Z,15.90
2022-10-13T11:52:19.112Z,15.97
2022-10-13T11:53:18.639Z,16.01
2022-10-13T11:54:18.656Z,16.34
2022-10-13T11:55:18.621Z,16.87
2022-10-13T11:56:18.606Z,17.82
2022-10-13T11:57:18.602Z,19.05
2022-10-13T11:58:18.598Z,19.49
2022-10-13T11:59:18.611Z,20.47
2022-10-13T12:00:18.583Z,20.95
2022-10-13T12:01:18.566Z,21.70
2022-10-13T12:02:19.418Z,22.44
2022-10-13T12:03:19.588Z,22.72
2022-10-13T12:04:18.569Z,23.25
2022-10-13T12:05:18.532Z,23.52
2022-10-13T12:06:18.525Z,23.89
2022-10-13T12:07:18.518Z,24.45
2022-10-13T12:08:18.508Z,24.44
2022-10-13T12:09:18.534Z,23.89
2022-10-13T12:10:18.490Z,23.47
2022-10-13T12:11:18.485Z,23.84
2022-10-13T12:12:18.958Z,23.38
2022-10-13T12:13:18.483Z,23.09
2022-10-13T12:14:18.491Z,23.31
2022-10-13T12:15:18.464Z,23.40
2022-10-13T12:16:18.459Z,23.56
2022-10-13T12:17:23.194Z,23.46
2022-10-13T12:18:20.425Z,22.75
2022-10-13T12:19:19.303Z,22.11
2022-10-13T12:20:18.409Z,21.37
2022-10-13T12:21:18.403Z,20.96
2022-10-13T12:22:18.408Z,20.37
2022-10-13T12:23:18.396Z,20.03
2022-10-13T12:24:18.407Z,19.67
2022-10-13T12:25:18.377Z,19.31
2022-10-13T12:26:18.358Z,19.24
2022-10-13T12:27:18.672Z,18.96
2022-10-13T12:28:18.381Z,18.63
2022-10-13T12:29:18.373Z,18.49
2022-10-13T12:30:18.332Z,18.20
2022-10-13T12:31:18.331Z,17.80
2022-10-13T12:32:18.317Z,17.26
2022-10-13T12:33:19.311Z,17.29
2022-10-13T12:34:18.333Z,17.16
2022-10-13T12:35:18.292Z,17.17
2022-10-13T12:36:18.281Z,17.22
2022-10-13T12:37:18.576Z,17.09
2022-10-13T12:38:18.261Z,17.02
2022-10-13T12:39:18.285Z,17.09
2022-10-13T12:40:18.245Z,16.96
2022-10-13T12:41:19.287Z,16.84
2022-10-13T12:42:18.232Z,16.71
2022-10-13T12:43:18.229Z,16.61
2022-10-13T12:44:18.246Z,16.51
2022-10-13T12:45:18.213Z,16.49
2022-10-13T12:46:18.200Z,16.61
2022-10-13T12:47:18.320Z,16.50
2022-10-13T12:48:18.183Z,16.39
2022-10-13T12:49:18.215Z,16.31
2022-10-13T12:50:18.191Z,16.15
2022-10-13T12:51:18.155Z,16.16
2022-10-13T12:52:18.403Z,16.17
2022-10-13T12:53:18.138Z,16.13
2022-10-13T12:54:18.157Z,16.17
2022-10-13T12:55:18.134Z,16.24
2022-10-13T12:56:18.113Z,16.17
2022-10-13T12:57:18.102Z,16.12
2022-10-13T12:58:18.099Z,16.02
2022-10-13T12:59:18.127Z,16.01
2022-10-13T13:00:18.086Z,16.12
2022-10-13T13:01:18.138Z,16.09
2022-10-13T13:02:18.411Z,16.08
2022-10-13T13:03:18.054Z,16.12
2022-10-13T13:04:18.082Z,16.02
2022-10-13T13:05:18.035Z,15.97
2022-10-13T13:06:18.028Z,15.82
2022-10-13T13:07:18.024Z,15.73
2022-10-13T13:08:18.008Z,15.75
2022-10-13T13:09:17.996Z,15.70
2022-10-13T13:10:18.036Z,15.76